createdAt,value
2023-11-01T00:02:22.972Z,74.40
2023-11-01T00:04:51.116Z,75.20
2023-11-01T00:07:19.165Z,75.70
2023-11-01T00:09:47.338Z,75.40
2023-11-01T00:12:15.444Z,75.40
2023-11-01T00:14:43.512Z,74.60
2023-11-01T00:17:12.673Z,75.10
2023-11-01T00:19:41.230Z,74.60
2023-11-01T00:22:09.228Z,74.60
2023-11-01T00:24:43.984Z,74.90
2023-11-01T00:27:12.656Z,77.30
2023-11-01T00:29:40.844Z,77.40
2023-11-01T00:32:08.984Z,78.50
2023-11-01T00:34:37.283Z,79.50
2023-11-01T00:37:05.731Z,80.50
2023-11-01T00:39:33.869Z,80.70
2023-11-01T00:42:02.093Z,81.10
2023-11-01T00:44:30.268Z,81.60
2023-11-01T00:46:58.365Z,81.80
2023-11-01T00:49:26.517Z,82.40
2023-11-01T00:51:54.530Z,82.80
2023-11-01T00:54:22.700Z,83.70
2023-11-01T00:56:50.817Z,84.80
2023-11-01T00:59:18.952Z,85.70
2023-11-01T01:01:46.978Z,86.40
2023-11-01T01:04:15.304Z,86.50
2023-11-01T01:06:43.638Z,86.40
2023-11-01T01:09:13.787Z,86.90
2023-11-01T01:11:42.308Z,87.00
2023-11-01T01:14:10.404Z,86.70
2023-11-01T01:16:38.547Z,87.10
2023-11-01T01:19:06.785Z,88.10
2023-11-01T01:21:35.002Z,87.90
2023-11-01T01:24:04.459Z,88.00
2023-11-01T01:26:32.693Z,88.90
2023-11-01T01:29:00.788Z,89.20
2023-11-01T01:31:28.923Z,90.10
2023-11-01T01:33:57.068Z,90.40
2023-11-01T01:36:25.156Z,90.50
2023-11-01T01:38:53.889Z,91.00
2023-11-01T01:41:22.223Z,91.30
2023-11-01T01:43:50.598Z,91.60
2023-11-01T01:46:19.626Z,91.80
2023-11-01T01:48:47.968Z,92.00
2023-11-01T01:51:16.202Z,92.50
2023-11-01T01:53:46.125Z,92.90
2023-11-01T01:56:14.899Z,93.00
2023-11-01T01:58:43.574Z,92.70
2023-11-01T02:01:12.502Z,92.60
2023-11-01T02:03:40.861Z,92.90
2023-11-01T02:06:09.234Z,93.10
2023-11-01T02:08:40.133Z,93.60
2023-11-01T02:11:08.225Z,93.90
2023-11-01T02:13:36.415Z,94.20
2023-11-01T02:16:04.557Z,94.70
2023-11-01T02:18:32.620Z,95.50
2023-11-01T02:21:01.016Z,96.10
2023-11-01T02:23:34.123Z,96.60
2023-11-01T02:26:03.374Z,97.50
2023-11-01T02:28:31.543Z,98.30
2023-11-01T02:30:59.627Z,98.30
2023-11-01T02:33:28.045Z,98.50
2023-11-01T02:35:56.127Z,98.90
2023-11-01T02:38:24.221Z,99.70
2023-11-01T02:40:52.371Z,99.90
2023-11-01T02:43:20.502Z,99.90
2023-11-01T02:45:48.639Z,99.90
2023-11-01T02:48:16.697Z,99.90
2023-11-01T02:50:44.986Z,99.90
2023-11-01T02:53:13.057Z,99.90
2023-11-01T02:55:42.641Z,99.90
2023-11-01T02:58:10.861Z,99.90
2023-11-01T03:00:38.923Z,99.90
2023-11-01T03:03:07.393Z,99.90
2023-11-01T03:05:35.686Z,99.90
2023-11-01T03:08:04.390Z,99.90
2023-11-01T03:10:32.601Z,99.90
2023-11-01T03:13:00.722Z,99.90
2023-11-01T03:15:28.705Z,99.90
2023-11-01T03:17:56.952Z,99.90
2023-11-01T03:20:25.131Z,99.90
2023-11-01T03:22:53.402Z,99.90
2023-11-01T03:25:21.491Z,99.90
2023-11-01T03:27:49.546Z,99.90
2023-11-01T03:30:17.789Z,99.90
2023-11-01T03:32:45.848Z,99.90
2023-11-01T03:35:13.880Z,99.90
2023-11-01T03:37:42.347Z,99.90
2023-11-01T03:40:10.397Z,99.90
2023-11-01T03:42:38.443Z,99.90
2023-11-01T03:45:07.103Z,99.90
2023-11-01T03:47:35.306Z,99.90
2023-11-01T03:50:03.418Z,99.90
2023-11-01T03:52:31.708Z,99.90
2023-11-01T03:54:59.749Z,99.90
2023-11-01T03:57:27.821Z,99.90
2023-11-01T03:59:56.230Z,99.90
2023-11-01T04:02:24.574Z,99.90
2023-11-01T04:04:52.783Z,99.90
2023-11-01T04:07:21.065Z,99.90
2023-11-01T04:09:49.284Z,99.90
2023-11-01T04:12:17.348Z,99.90
2023-11-01T04:14:45.596Z,99.90
2023-11-01T04:17:13.799Z,99.90
2023-11-01T04:19:42.043Z,99.90
2023-11-01T04:22:10.056Z,99.90
2023-11-01T04:24:38.178Z,99.90
2023-11-01T04:27:07.251Z,99.90
2023-11-01T04:29:35.301Z,99.90
2023-11-01T04:32:04.475Z,99.90
2023-11-01T04:34:32.655Z,99.90
2023-11-01T04:37:01.046Z,99.90
2023-11-01T04:39:29.166Z,99.90
2023-11-01T04:41:57.269Z,99.90
2023-11-01T04:44:25.422Z,99.90
2023-11-01T04:46:53.597Z,99.90
2023-11-01T04:49:21.731Z,99.90
2023-11-01T04:51:49.952Z,99.90
2023-11-01T04:54:18.448Z,99.90
2023-11-01T04:56:46.643Z,99.90
2023-11-01T04:59:14.814Z,99.90
2023-11-01T05:01:42.873Z,99.90
2023-11-01T05:04:11.088Z,99.90
2023-11-01T05:06:40.788Z,99.90
2023-11-01T05:09:09.097Z,99.90
2023-11-01T05:11:37.234Z,99.90
2023-11-01T05:14:05.308Z,99.90
2023-11-01T05:16:33.766Z,99.90
2023-11-01T05:19:01.905Z,99.90
2023-11-01T05:21:29.968Z,99.90
2023-11-01T05:23:58.050Z,99.90
2023-11-01T05:26:26.243Z,99.90
2023-11-01T05:28:54.295Z,99.90
2023-11-01T05:31:22.334Z,99.90
2023-11-01T05:33:51.813Z,99.90
2023-11-01T05:36:20.210Z,99.90
2023-11-01T05:38:48.281Z,99.90
2023-11-01T05:41:16.458Z,99.90
2023-11-01T05:43:45.528Z,99.90
2023-11-01T05:46:13.660Z,99.90
2023-11-01T05:48:41.828Z,99.90
2023-11-01T05:51:10.581Z,99.90
2023-11-01T05:53:38.724Z,99.90
2023-11-01T05:56:10.089Z,99.90
2023-11-01T05:58:39.331Z,99.90
2023-11-01T06:01:07.984Z,99.90
2023-11-01T06:03:36.325Z,99.90
2023-11-01T06:06:04.766Z,99.90
2023-11-01T06:08:32.836Z,99.90
2023-11-01T06:11:00.928Z,99.50
2023-11-01T06:13:28.995Z,99.20
2023-11-01T06:16:00.993Z,99.10
2023-11-01T06:18:29.212Z,99.30
2023-11-01T06:20:57.859Z,99.20
2023-11-01T06:23:25.948Z,99.40
2023-11-01T06:25:54.035Z,99.70
2023-11-01T06:28:22.107Z,99.20
2023-11-01T06:30:51.456Z,98.90
2023-11-01T06:33:19.790Z,98.50
2023-11-01T06:35:48.211Z,98.70
2023-11-01T06:38:16.394Z,98.50
2023-11-01T06:40:44.483Z,97.10
2023-11-01T06:43:12.607Z,97.60
2023-11-01T06:45:41.933Z,97.60
2023-11-01T06:48:11.188Z,97.40
2023-11-01T06:50:41.905Z,98.00
2023-11-01T06:53:10.012Z,97.00
2023-11-01T06:55:38.788Z,95.50
2023-11-01T06:58:06.860Z,95.80
2023-11-01T07:00:35.550Z,95.80
2023-11-01T07:03:04.099Z,96.00
2023-11-01T07:05:32.521Z,96.90
2023-11-01T07:08:00.680Z,96.70
2023-11-01T07:10:28.757Z,93.30
2023-11-01T07:12:56.922Z,92.50
2023-11-01T07:15:25.287Z,89.80
2023-11-01T07:17:53.625Z,88.70
2023-11-01T07:20:21.824Z,86.80
2023-11-01T07:22:52.760Z,76.50
2023-11-01T07:25:20.862Z,67.20
2023-11-01T07:27:48.959Z,65.10
2023-11-01T07:30:17.153Z,65.60
2023-11-01T07:32:46.728Z,66.60
2023-11-01T07:35:14.937Z,68.90
2023-11-01T07:37:43.056Z,70.80
2023-11-01T07:40:11.640Z,69.40
2023-11-01T07:42:40.269Z,68.70
2023-11-01T07:45:10.373Z,71.20
2023-11-01T07:47:40.252Z,74.30
2023-11-01T07:50:10.964Z,76.90
2023-11-01T07:52:40.650Z,79.60
2023-11-01T07:55:08.825Z,79.40
2023-11-01T07:57:37.038Z,78.30
2023-11-01T08:00:07.166Z,75.90
2023-11-01T08:02:35.590Z,75.10
2023-11-01T08:05:07.424Z,73.80
2023-11-01T08:07:35.765Z,73.70
2023-11-01T08:10:04.038Z,72.80
2023-11-01T08:12:32.412Z,73.00
2023-11-01T08:15:00.509Z,72.90
2023-11-01T08:17:28.701Z,71.30
2023-11-01T08:19:56.889Z,73.10
2023-11-01T08:22:25.056Z,71.20
2023-11-01T08:24:53.449Z,71.60
2023-11-01T08:27:21.657Z,70.70
2023-11-01T08:29:49.770Z,69.90
2023-11-01T08:32:17.920Z,72.60
2023-11-01T08:34:46.070Z,72.30
2023-11-01T08:37:14.215Z,71.10
2023-11-01T08:39:42.565Z,70.40
2023-11-01T08:42:13.180Z,68.80
2023-11-01T08:44:41.350Z,72.50
2023-11-01T08:47:10.785Z,71.40
2023-11-01T08:49:39.089Z,69.10
2023-11-01T08:52:07.681Z,69.20
2023-11-01T08:54:36.511Z,69.00
2023-11-01T08:57:04.734Z,67.30
2023-11-01T08:59:32.917Z,64.30
2023-11-01T09:02:07.404Z,64.40
2023-11-01T09:04:42.075Z,65.40
2023-11-01T09:07:10.879Z,64.50
2023-11-01T09:09:39.322Z,66.00
2023-11-01T09:12:08.718Z,66.60
2023-11-01T09:14:38.204Z,65.10
2023-11-01T09:17:06.952Z,64.10
2023-11-01T09:19:35.510Z,62.60
2023-11-01T09:22:03.843Z,61.80
2023-11-01T09:24:32.145Z,61.80
2023-11-01T09:27:00.962Z,60.90
2023-11-01T09:29:29.176Z,58.90
2023-11-01T09:31:57.370Z,59.50
2023-11-01T09:34:25.533Z,62.70
2023-11-01T09:36:53.758Z,66.70
2023-11-01T09:39:22.201Z,68.70
2023-11-01T09:41:54.100Z,69.00
2023-11-01T09:44:22.397Z,68.80
2023-11-01T09:46:51.290Z,69.10
2023-11-01T09:49:19.528Z,69.70
2023-11-01T09:51:47.756Z,70.40
2023-11-01T09:54:15.924Z,67.30
2023-11-01T09:56:44.670Z,64.10
2023-11-01T09:59:13.945Z,61.00
2023-11-01T10:01:42.427Z,61.30
2023-11-01T10:04:11.358Z,65.40
2023-11-01T10:06:39.697Z,64.40
2023-11-01T10:09:07.975Z,62.20
2023-11-01T10:11:36.285Z,61.60
2023-11-01T10:14:04.488Z,59.90
2023-11-01T10:16:32.981Z,60.40
2023-11-01T10:19:03.632Z,63.70
2023-11-01T10:21:32.831Z,64.30
2023-11-01T10:24:05.162Z,62.20
2023-11-01T10:26:36.975Z,59.50
2023-11-01T10:29:05.244Z,58.10
2023-11-01T10:31:33.268Z,57.90
2023-11-01T10:34:10.937Z,56.90
2023-11-01T10:36:52.168Z,58.30
2023-11-01T10:39:20.729Z,62.50
2023-11-01T10:41:52.305Z,64.00
2023-11-01T10:44:24.746Z,64.10
2023-11-01T10:46:53.893Z,64.40
2023-11-01T10:49:22.434Z,62.10
2023-11-01T10:51:51.105Z,59.90
2023-11-01T10:54:20.316Z,58.80
2023-11-01T10:56:49.525Z,58.90
2023-11-01T10:59:36.699Z,57.60
2023-11-01T11:02:10.932Z,58.20
2023-11-01T11:04:48.003Z,59.30
2023-11-01T11:07:25.427Z,59.50
2023-11-01T11:10:15.089Z,57.90
2023-11-01T11:13:09.119Z,56.60
2023-11-01T11:15:47.985Z,56.70
2023-11-01T11:18:23.308Z,57.50
2023-11-01T11:20:55.096Z,55.80
2023-11-01T11:23:33.271Z,55.40
2023-11-01T11:26:03.457Z,54.90
2023-11-01T11:28:36.472Z,54.80
2023-11-01T11:31:07.353Z,54.20
2023-11-01T11:33:36.814Z,54.50
2023-11-01T11:36:17.905Z,54.00
2023-11-01T11:38:57.140Z,53.90
2023-11-01T11:41:40.605Z,53.40
2023-11-01T11:44:18.231Z,53.50
2023-11-01T11:46:50.407Z,55.40
2023-11-01T11:49:25.139Z,53.60
2023-11-01T11:51:57.607Z,53.20
2023-11-01T11:54:26.570Z,54.10
2023-11-01T11:56:55.453Z,53.50
2023-11-01T11:59:24.616Z,54.00
2023-11-01T12:01:53.718Z,54.60
2023-11-01T12:04:22.345Z,55.60
2023-11-01T12:06:55.105Z,56.00
2023-11-01T12:09:23.656Z,55.90
2023-11-01T12:11:53.278Z,57.10
2023-11-01T12:14:22.321Z,56.70
2023-11-01T12:16:51.473Z,57.40
2023-11-01T12:19:20.586Z,57.90
2023-11-01T12:21:52.824Z,56.70
2023-11-01T12:24:22.480Z,57.70
2023-11-01T12:26:59.778Z,57.10
2023-11-01T12:29:31.494Z,56.70
2023-11-01T12:32:07.507Z,57.10
2023-11-01T12:34:36.883Z,58.30
2023-11-01T12:37:14.916Z,57.00
2023-11-01T12:40:02.483Z,56.80
2023-11-01T12:42:39.687Z,57.90
2023-11-01T12:45:16.810Z,58.30
2023-11-01T12:47:55.126Z,57.80
2023-11-01T12:50:25.845Z,57.80
2023-11-01T12:52:54.687Z,59.10
2023-11-01T12:55:22.977Z,58.10
2023-11-01T12:57:52.487Z,58.80
2023-11-01T13:00:21.589Z,58.50
2023-11-01T13:02:49.811Z,58.50
2023-11-01T13:05:18.540Z,58.40
2023-11-01T13:07:47.397Z,58.30
2023-11-01T13:10:16.631Z,58.20
2023-11-01T13:12:48.822Z,58.10
2023-11-01T13:15:18.327Z,59.10
2023-11-01T13:17:48.255Z,59.90
2023-11-01T13:20:17.308Z,59.50
2023-11-01T13:22:45.409Z,60.80
2023-11-01T13:25:16.338Z,59.60
2023-11-01T13:27:44.638Z,61.60
2023-11-01T13:30:13.041Z,60.60
2023-11-01T13:32:44.219Z,60.90
2023-11-01T13:35:12.210Z,59.60
2023-11-01T13:37:40.842Z,60.80
2023-11-01T13:40:10.944Z,59.60
2023-11-01T13:42:39.117Z,61.20
2023-11-01T13:45:08.681Z,61.70
2023-11-01T13:47:37.073Z,61.90
2023-11-01T13:50:05.244Z,62.90
2023-11-01T13:52:36.261Z,62.10
2023-11-01T13:55:04.432Z,62.90
2023-11-01T13:57:32.600Z,63.50
2023-11-01T14:00:00.702Z,63.60
2023-11-01T14:02:28.957Z,64.00
2023-11-01T14:04:57.108Z,64.60
2023-11-01T14:07:25.136Z,65.50
2023-11-01T14:09:55.959Z,65.80
2023-11-01T14:12:30.406Z,66.90
2023-11-01T14:14:58.551Z,67.20
2023-11-01T14:17:26.985Z,68.30
2023-11-01T14:19:55.198Z,69.00
2023-11-01T14:22:23.372Z,69.10
2023-11-01T14:24:54.117Z,69.90
2023-11-01T14:27:23.895Z,70.40
2023-11-01T14:29:52.476Z,70.80
2023-11-01T14:32:20.662Z,70.70
2023-11-01T14:34:48.833Z,71.10
2023-11-01T14:37:16.899Z,72.10
2023-11-01T14:39:45.039Z,72.20
2023-11-01T14:42:13.438Z,73.50
2023-11-01T14:44:41.701Z,73.50
2023-11-01T14:47:09.868Z,73.60
2023-11-01T14:49:41.068Z,74.70
2023-11-01T14:52:09.247Z,74.90
2023-11-01T14:54:39.666Z,75.30
2023-11-01T14:57:07.844Z,76.30
2023-11-01T14:59:38.262Z,77.80
2023-11-01T15:02:07.019Z,78.00
2023-11-01T15:04:36.987Z,80.70
2023-11-01T15:07:08.288Z,81.90
2023-11-01T15:09:36.961Z,82.20
2023-11-01T15:12:14.068Z,82.10
2023-11-01T15:14:42.638Z,80.40
2023-11-01T15:17:11.130Z,81.30
2023-11-01T15:19:45.030Z,82.40
2023-11-01T15:22:14.022Z,85.50
2023-11-01T15:24:51.124Z,86.10
2023-11-01T15:27:20.232Z,84.20
2023-11-01T15:29:50.864Z,83.40
2023-11-01T15:32:19.246Z,84.10
2023-11-01T15:34:47.822Z,85.80
2023-11-01T15:37:20.772Z,85.00
2023-11-01T15:39:49.710Z,83.80
2023-11-01T15:42:18.112Z,86.30
2023-11-01T15:44:46.255Z,86.10
2023-11-01T15:47:17.513Z,84.30
2023-11-01T15:49:45.690Z,83.70
2023-11-01T15:52:13.867Z,86.40
2023-11-01T15:54:45.094Z,86.90
2023-11-01T15:57:15.339Z,85.80
2023-11-01T15:59:45.954Z,84.90
2023-11-01T16:02:14.147Z,84.20
2023-11-01T16:04:44.993Z,83.60
2023-11-01T16:07:13.358Z,83.70
2023-11-01T16:09:42.676Z,83.40
2023-11-01T16:12:11.020Z,84.00
2023-11-01T16:14:39.229Z,83.30
2023-11-01T16:17:12.261Z,83.40
2023-11-01T16:19:40.514Z,83.30
2023-11-01T16:22:23.085Z,83.40
2023-11-01T16:24:51.572Z,83.10
2023-11-01T16:27:25.478Z,83.70
2023-11-01T16:29:53.693Z,83.90
2023-11-01T16:32:25.097Z,83.70
2023-11-01T16:34:56.433Z,83.60
2023-11-01T16:37:24.486Z,83.50
2023-11-01T16:39:53.025Z,83.60
2023-11-01T16:42:21.186Z,84.00
2023-11-01T16:44:49.296Z,83.80
2023-11-01T16:47:17.589Z,83.90
2023-11-01T16:49:51.446Z,84.00
2023-11-01T16:52:19.586Z,84.20
2023-11-01T16:54:47.743Z,85.10
2023-11-01T16:57:16.084Z,84.20
2023-11-01T16:59:44.517Z,84.20
2023-11-01T17:02:12.707Z,85.00
2023-11-01T17:04:56.266Z,84.80
2023-11-01T17:07:26.243Z,85.40
2023-11-01T17:09:54.388Z,85.70
2023-11-01T17:12:22.595Z,85.30
2023-11-01T17:14:54.066Z,85.30
2023-11-01T17:17:22.244Z,85.50
2023-11-01T17:19:52.546Z,85.70
2023-11-01T17:22:32.779Z,85.80
2023-11-01T17:25:03.749Z,86.40
2023-11-01T17:27:36.033Z,86.40
2023-11-01T17:30:05.544Z,87.30
2023-11-01T17:32:39.442Z,87.00
2023-11-01T17:35:07.838Z,87.20
2023-11-01T17:37:41.200Z,87.40
2023-11-01T17:40:12.262Z,87.70
2023-11-01T17:42:43.533Z,87.50
2023-11-01T17:45:11.978Z,87.70
2023-11-01T17:47:44.806Z,87.80
2023-11-01T17:50:18.189Z,87.50
2023-11-01T17:52:48.668Z,87.50
2023-11-01T17:55:18.388Z,88.50
2023-11-01T17:57:48.819Z,89.30
2023-11-01T18:00:17.394Z,89.30
2023-11-01T18:03:00.819Z,88.80
2023-11-01T18:05:40.863Z,89.00
2023-11-01T18:08:10.362Z,89.30
2023-11-01T18:10:43.053Z,89.10
2023-11-01T18:13:22.985Z,89.30
2023-11-01T18:15:52.234Z,89.50
2023-11-01T18:18:29.456Z,88.80
2023-11-01T18:21:06.007Z,88.50
2023-11-01T18:23:34.187Z,88.50
2023-11-01T18:26:13.028Z,89.40
2023-11-01T18:28:45.001Z,89.70
2023-11-01T18:31:19.362Z,89.70
2023-11-01T18:33:55.153Z,89.90
2023-11-01T18:36:23.586Z,90.10
2023-11-01T18:38:54.742Z,90.10
2023-11-01T18:41:27.933Z,89.70
2023-11-01T18:43:56.236Z,89.60
2023-11-01T18:46:25.158Z,89.80
2023-11-01T18:48:55.810Z,90.00
2023-11-01T18:51:42.758Z,90.30
2023-11-01T18:54:11.176Z,90.10
2023-11-01T18:56:42.622Z,89.60
2023-11-01T18:59:11.203Z,90.10
2023-11-01T19:01:42.403Z,90.10
2023-11-01T19:04:12.961Z,90.20
2023-11-01T19:06:42.722Z,90.30
2023-11-01T19:09:11.189Z,90.20
2023-11-01T19:11:39.283Z,90.20
2023-11-01T19:14:07.493Z,90.70
2023-11-01T19:16:35.575Z,90.40
2023-11-01T19:19:03.921Z,90.30
2023-11-01T19:21:32.205Z,90.50
2023-11-01T19:24:00.890Z,90.30
2023-11-01T19:26:30.441Z,90.40
2023-11-01T19:28:58.782Z,90.60
2023-11-01T19:31:30.151Z,90.80
2023-11-01T19:33:58.345Z,90.50
2023-11-01T19:36:27.783Z,91.00
2023-11-01T19:38:56.810Z,91.20
2023-11-01T19:41:25.045Z,91.20
2023-11-01T19:43:59.765Z,91.10
2023-11-01T19:46:27.980Z,91.40
2023-11-01T19:48:56.142Z,91.60
2023-11-01T19:51:24.224Z,91.40
2023-11-01T19:53:54.401Z,91.30
2023-11-01T19:56:25.557Z,91.30
2023-11-01T19:58:54.775Z,91.30
2023-11-01T20:01:23.301Z,91.20
2023-11-01T20:03:52.119Z,91.10
2023-11-01T20:06:22.179Z,91.40
2023-11-01T20:08:51.226Z,91.40
2023-11-01T20:11:19.391Z,91.60
2023-11-01T20:13:47.553Z,91.70
2023-11-01T20:16:21.707Z,91.90
2023-11-01T20:18:56.529Z,91.70
2023-11-01T20:21:24.606Z,91.80
2023-11-01T20:23:53.108Z,92.10
2023-11-01T20:26:22.498Z,92.20
2023-11-01T20:28:50.605Z,92.20
2023-11-01T20:31:19.352Z,92.30
2023-11-01T20:33:50.537Z,92.40
2023-11-01T20:36:18.831Z,92.50
2023-11-01T20:38:46.920Z,92.60
2023-11-01T20:41:15.495Z,92.80
2023-11-01T20:43:43.575Z,92.90
2023-11-01T20:46:12.759Z,92.70
2023-11-01T20:48:41.001Z,93.00
2023-11-01T20:51:13.502Z,93.20
2023-11-01T20:53:43.026Z,93.50
2023-11-01T20:56:11.502Z,93.30
2023-11-01T20:58:39.756Z,93.30
2023-11-01T21:01:07.993Z,93.30
2023-11-01T21:03:36.230Z,93.40
2023-11-01T21:06:04.493Z,93.80
2023-11-01T21:08:36.104Z,93.60
2023-11-01T21:11:05.346Z,93.70
2023-11-01T21:13:33.442Z,93.90
2023-11-01T21:16:02.663Z,93.90
2023-11-01T21:18:32.931Z,94.10
2023-11-01T21:21:02.307Z,94.20
2023-11-01T21:23:30.480Z,94.30
2023-11-01T21:25:59.040Z,94.50
2023-11-01T21:28:27.204Z,94.70
2023-11-01T21:30:56.888Z,94.70
2023-11-01T21:33:24.968Z,95.10
2023-11-01T21:35:53.211Z,95.30
2023-11-01T21:38:21.476Z,95.60
2023-11-01T21:40:49.558Z,95.70
2023-11-01T21:43:22.036Z,95.90
2023-11-01T21:45:52.620Z,95.90
2023-11-01T21:48:24.068Z,96.20
2023-11-01T21:50:52.614Z,96.20
2023-11-01T21:53:21.288Z,96.10
2023-11-01T21:55:55.921Z,96.30
2023-11-01T21:58:26.555Z,96.20
2023-11-01T22:00:57.174Z,96.60
2023-11-01T22:03:44.579Z,96.60
2023-11-01T22:06:17.720Z,96.80
2023-11-01T22:08:49.124Z,97.00
2023-11-01T22:11:17.172Z,97.10
2023-11-01T22:13:45.485Z,97.40
2023-11-01T22:16:24.802Z,97.50
2023-11-01T22:18:57.544Z,97.50
2023-11-01T22:21:29.402Z,97.70
2023-11-01T22:23:59.883Z,97.80
2023-11-01T22:26:28.468Z,97.80
2023-11-01T22:29:02.960Z,97.90
2023-11-01T22:31:37.098Z,98.00
2023-11-01T22:34:05.505Z,98.10
2023-11-01T22:36:36.845Z,98.20
2023-11-01T22:39:08.072Z,98.40
2023-11-01T22:41:36.572Z,98.20
2023-11-01T22:44:06.703Z,98.20
2023-11-01T22:46:35.173Z,98.30
2023-11-01T22:49:03.298Z,98.60
2023-11-01T22:51:31.350Z,98.60
2023-11-01T22:53:59.536Z,98.60
2023-11-01T22:56:27.569Z,99.10
2023-11-01T22:58:55.744Z,99.40
2023-11-01T23:01:25.387Z,99.60
2023-11-01T23:03:53.634Z,99.90
2023-11-01T23:06:21.835Z,99.70
2023-11-01T23:08:50.609Z,99.80
2023-11-01T23:11:18.829Z,99.90
2023-11-01T23:13:47.009Z,99.90
2023-11-01T23:16:15.200Z,99.70
2023-11-01T23:18:44.041Z,99.90
2023-11-01T23:21:12.339Z,99.90
2023-11-01T23:23:40.395Z,99.90
2023-11-01T23:26:22.630Z,99.90
2023-11-01T23:29:10.133Z,99.90
2023-11-01T23:31:48.984Z,99.90
2023-11-01T23:34:34.119Z,99.90
2023-11-01T23:37:02.630Z,99.90
2023-11-01T23:39:38.228Z,99.90
2023-11-01T23:42:10.817Z,99.90
2023-11-01T23:44:38.944Z,99.90
2023-11-01T23:47:07.406Z,99.90
2023-11-01T23:52:37.584Z,99.90
2023-11-01T23:55:06.036Z,99.90
2023-11-01T23:57:35.251Z,99.90
